Time;durP1;ratioP1;P1;durP2;ratioP2;P2;SDS_P1;SDS_P2;PMS_P1;PMS_P2;Temp;Humidity;BMP_temperature;BMP_pressure;BME280_temperature;BME280_humidity;BME280_pressure;Samples;Min_cycle;Max_cycle;Signal;HPM_P1;HPM_P2
2021/04/12 00:01:26;;;;;;;4.47;1.30;;;;;;;;;;4993669;28;39857;-76
2021/04/12 00:03:58;;;;;;;1.67;1.10;;;;;;;;;;4996461;28;39408;-77
2021/04/12 00:06:32;;;;;;;4.18;1.33;;;;;;;;;;5000858;28;38385;-76
2021/04/12 00:09:01;;;;;;;3.87;1.00;;;;;;;;;;4985886;28;37750;-75
2021/04/12 00:11:35;;;;;;;1.13;0.70;;;;;;;;;;4982971;28;48850;-76
2021/04/12 00:14:06;;;;;;;2.07;0.80;;;;;;;;;;4986625;28;38607;-76
2021/04/12 00:16:41;;;;;;;1.37;0.70;;;;;;;;;;4987066;28;38919;-77
2021/04/12 00:19:07;;;;;;;3.50;1.20;;;;;;;;;;5000918;28;37617;-76
2021/04/12 00:21:48;;;;;;;1.20;1.10;;;;;;;;;;4978930;28;39436;-77
2021/04/12 00:24:17;;;;;;;3.47;1.20;;;;;;;;;;4988491;28;36888;-76
2021/04/12 00:26:55;;;;;;;3.07;1.10;;;;;;;;;;5002355;28;40018;-76
2021/04/12 00:29:28;;;;;;;1.87;0.60;;;;;;;;;;4979585;28;37818;-76
2021/04/12 00:31:59;;;;;;;1.13;0.60;;;;;;;;;;4982191;28;38411;-76
2021/04/12 00:34:30;;;;;;;1.47;0.50;;;;;;;;;;4985444;28;38623;-76
2021/04/12 00:37:05;;;;;;;0.83;0.43;;;;;;;;;;4981380;28;38148;-76
2021/04/12 00:39:40;;;;;;;5.43;0.60;;;;;;;;;;4995421;28;47463;-76
2021/04/12 00:42:12;;;;;;;2.70;0.50;;;;;;;;;;4980240;28;39147;-77
2021/04/12 00:44:39;;;;;;;3.05;0.35;;;;;;;;;;5000046;28;40089;-76
2021/04/12 00:47:11;;;;;;;0.83;0.50;;;;;;;;;;4977152;28;37625;-76
2021/04/12 00:49:46;;;;;;;1.27;0.63;;;;;;;;;;4984622;28;36947;-76
2021/04/12 00:52:28;;;;;;;5.40;0.90;;;;;;;;;;4979426;28;39715;-77
2021/04/12 00:55:09;;;;;;;1.55;0.47;;;;;;;;;;4983386;28;39624;-76
2021/04/12 00:57:48;;;;;;;4.00;0.73;;;;;;;;;;4983413;28;48790;-76
2021/04/12 01:00:24;;;;;;;1.60;1.10;;;;;;;;;;4982369;28;37355;-76
2021/04/12 01:02:57;;;;;;;1.97;1.03;;;;;;;;;;4979935;28;39182;-76
2021/04/12 01:05:23;;;;;;;1.58;0.70;;;;;;;;;;4994658;28;40124;-76
2021/04/12 01:08:19;;;;;;;2.17;0.83;;;;;;;;;;4983231;28;38194;-76
2021/04/12 01:11:04;;;;;;;4.30;1.30;;;;;;;;;;4982983;28;48500;-76
2021/04/12 01:13:36;;;;;;;3.97;1.40;;;;;;;;;;4999678;28;47346;-76
2021/04/12 01:16:21;;;;;;;4.70;1.42;;;;;;;;;;4997850;28;38652;-77
2021/04/12 01:19:06;;;;;;;5.10;1.37;;;;;;;;;;4996165;28;47030;-77
2021/04/12 01:21:51;;;;;;;3.63;1.73;;;;;;;;;;4989789;28;47297;-76
2021/04/12 01:24:37;;;;;;;4.00;2.30;;;;;;;;;;4997836;28;40413;-77
2021/04/12 01:27:22;;;;;;;5.97;1.70;;;;;;;;;;4979641;28;38302;-77
2021/04/12 01:30:07;;;;;;;5.27;1.57;;;;;;;;;;4986873;28;37807;-77
2021/04/12 01:32:57;;;;;;;3.43;1.80;;;;;;;;;;4980952;28;48843;-77
2021/04/12 01:35:34;;;;;;;5.13;1.30;;;;;;;;;;4979797;28;39264;-77
2021/04/12 01:38:02;;;;;;;6.20;1.73;;;;;;;;;;4994618;28;38228;-78
2021/04/12 01:40:36;;;;;;;5.00;2.00;;;;;;;;;;4982124;28;49040;-77
2021/04/12 01:43:06;;;;;;;4.33;1.90;;;;;;;;;;4982930;28;37073;-77
2021/04/12 01:45:38;;;;;;;5.00;1.60;;;;;;;;;;4979736;28;39128;-77
2021/04/12 01:48:22;;;;;;;3.13;1.60;;;;;;;;;;4976855;28;39033;-77
2021/04/12 01:51:07;;;;;;;3.17;1.47;;;;;;;;;;4998220;28;36914;-77
2021/04/12 01:53:42;;;;;;;4.17;1.70;;;;;;;;;;4979120;28;49273;-76
2021/04/12 01:56:26;;;;;;;7.73;2.13;;;;;;;;;;4996906;28;39848;-77
2021/04/12 01:59:17;;;;;;;4.03;1.70;;;;;;;;;;4982069;28;38442;-77
2021/04/12 02:01:59;;;;;;;3.97;1.83;;;;;;;;;;4981052;28;49024;-77
2021/04/12 02:04:32;;;;;;;4.72;1.85;;;;;;;;;;4999922;28;37060;-77
2021/04/12 02:07:08;;;;;;;4.27;1.80;;;;;;;;;;4999922;28;40536;-77
2021/04/12 02:09:47;;;;;;;5.37;2.17;;;;;;;;;;4984742;28;48834;-77
2021/04/12 02:12:22;;;;;;;7.13;2.43;;;;;;;;;;4997339;28;38617;-77
2021/04/12 02:14:52;;;;;;;3.03;1.73;;;;;;;;;;4997417;28;38247;-77
2021/04/12 02:17:18;;;;;;;4.17;1.80;;;;;;;;;;4999901;28;39367;-77
2021/04/12 02:20:03;;;;;;;8.20;1.63;;;;;;;;;;4997841;28;39142;-77
2021/04/12 02:22:58;;;;;;;3.53;1.83;;;;;;;;;;4982229;28;46894;-77
2021/04/12 02:25:24;;;;;;;2.50;1.40;;;;;;;;;;4999655;28;37491;-77
2021/04/12 02:28:12;;;;;;;3.00;1.30;;;;;;;;;;4984347;28;39661;-77
2021/04/12 02:30:48;;;;;;;3.50;2.00;;;;;;;;;;4973724;28;47256;-77
2021/04/12 02:33:27;;;;;;;3.93;1.87;;;;;;;;;;4995201;28;38852;-77
2021/04/12 02:36:02;;;;;;;5.53;2.10;;;;;;;;;;4979554;28;36747;-77
2021/04/12 02:38:40;;;;;;;6.93;2.40;;;;;;;;;;4981098;28;48805;-77
2021/04/12 02:41:16;;;;;;;8.00;2.40;;;;;;;;;;4983644;28;39734;-77
2021/04/12 02:43:42;;;;;;;5.00;2.00;;;;;;;;;;4983189;28;38513;-77
2021/04/12 02:46:08;;;;;;;4.03;1.80;;;;;;;;;;4980921;28;34727;-77
2021/04/12 02:48:35;;;;;;;7.13;1.90;;;;;;;;;;4985370;28;40390;-77
2021/04/12 02:51:10;;;;;;;6.43;1.07;;;;;;;;;;4999490;28;38511;-77
2021/04/12 02:53:55;;;;;;;5.27;1.47;;;;;;;;;;4981574;28;48794;-77
2021/04/12 02:56:40;;;;;;;5.73;1.80;;;;;;;;;;4996860;28;38376;-77
2021/04/12 02:59:18;;;;;;;4.73;0.90;;;;;;;;;;4982777;28;38551;-76
2021/04/12 03:02:03;;;;;;;6.63;0.90;;;;;;;;;;4974626;28;38472;-76
2021/04/12 03:04:42;;;;;;;9.67;1.43;;;;;;;;;;4972346;28;48628;-77
2021/04/12 03:07:27;;;;;;;7.00;1.50;;;;;;;;;;4980106;28;36420;-77
2021/04/12 03:10:12;;;;;;;4.07;1.17;;;;;;;;;;4981124;28;39792;-77
2021/04/12 03:12:45;;;;;;;4.87;1.30;;;;;;;;;;4992490;28;47228;-77
2021/04/12 03:15:30;;;;;;;8.80;0.93;;;;;;;;;;4976716;28;39257;-76
2021/04/12 03:18:15;;;;;;;5.33;1.20;;;;;;;;;;4993642;28;45824;-77
2021/04/12 03:20:46;;;;;;;4.30;1.23;;;;;;;;;;4986937;28;47687;-77
2021/04/12 03:23:31;;;;;;;3.53;1.67;;;;;;;;;;4983592;28;38887;-77
2021/04/12 03:26:04;;;;;;;7.53;2.03;;;;;;;;;;4996309;28;38646;-77
2021/04/12 03:28:49;;;;;;;7.57;1.40;;;;;;;;;;4995716;28;47329;-77
2021/04/12 03:31:20;;;;;;;5.20;0.90;;;;;;;;;;4985975;28;41157;-76
2021/04/12 03:34:05;;;;;;;4.17;1.27;;;;;;;;;;4995760;28;39296;-77
2021/04/12 03:36:36;;;;;;;4.97;1.03;;;;;;;;;;4991027;28;46996;-78
2021/04/12 03:39:02;;;;;;;1.90;0.83;;;;;;;;;;4983478;28;36754;-79
2021/04/12 03:41:44;;;;;;;4.87;1.30;;;;;;;;;;4982731;28;39218;-76
2021/04/12 03:44:10;;;;;;;6.00;1.30;;;;;;;;;;4996307;28;40450;-77
2021/04/12 03:46:47;;;;;;;9.23;1.77;;;;;;;;;;4991336;28;38767;-76
2021/04/12 03:49:32;;;;;;;8.67;1.20;;;;;;;;;;4995191;28;37274;-77
2021/04/12 03:52:13;;;;;;;8.57;1.30;;;;;;;;;;4978244;28;39366;-76
2021/04/12 03:54:49;;;;;;;9.70;1.50;;;;;;;;;;4980749;28;48978;-76
2021/04/12 03:57:18;;;;;;;3.87;1.00;;;;;;;;;;4996976;28;40234;-76
2021/04/12 04:00:04;;;;;;;6.40;1.00;;;;;;;;;;4984471;28;38043;-77
2021/04/12 04:02:50;;;;;;;9.23;1.33;;;;;;;;;;4981519;28;39787;-77
2021/04/12 04:05:19;;;;;;;4.73;0.97;;;;;;;;;;4981998;28;38920;-77
2021/04/12 04:07:54;;;;;;;7.60;1.00;;;;;;;;;;4996383;28;39801;-77
2021/04/12 04:10:45;;;;;;;7.00;1.07;;;;;;;;;;4976152;28;35835;-77
2021/04/12 04:13:11;;;;;;;4.00;1.13;;;;;;;;;;4979889;28;39775;-77
2021/04/12 04:15:41;;;;;;;5.87;1.53;;;;;;;;;;4998362;28;38899;-77
2021/04/12 04:18:16;;;;;;;6.20;1.70;;;;;;;;;;5000430;28;39893;-77
2021/04/12 04:21:01;;;;;;;5.43;1.73;;;;;;;;;;4979524;28;35615;-76
2021/04/12 04:23:27;;;;;;;9.63;1.90;;;;;;;;;;4996558;28;39592;-77
2021/04/12 04:26:12;;;;;;;3.70;1.87;;;;;;;;;;5001141;28;39590;-77
2021/04/12 04:28:41;;;;;;;5.37;1.67;;;;;;;;;;4985186;28;48799;-76
2021/04/12 04:31:10;;;;;;;8.47;2.03;;;;;;;;;;4997800;28;38381;-77
2021/04/12 04:33:56;;;;;;;7.50;2.43;;;;;;;;;;4986166;28;39110;-77
2021/04/12 04:36:26;;;;;;;6.67;2.40;;;;;;;;;;4997396;28;38206;-76
2021/04/12 04:39:01;;;;;;;8.97;3.37;;;;;;;;;;4984548;28;40868;-77
2021/04/12 04:41:41;;;;;;;14.47;7.67;;;;;;;;;;4982096;28;47505;-77
2021/04/12 04:44:26;;;;;;;19.77;9.20;;;;;;;;;;5003627;28;39136;-76
2021/04/12 04:47:11;;;;;;;11.97;6.20;;;;;;;;;;4985498;28;39534;-77
2021/04/12 04:50:03;;;;;;;16.00;8.00;;;;;;;;;;4992272;28;46909;-77
2021/04/12 04:52:44;;;;;;;6.90;3.30;;;;;;;;;;4979721;28;48654;-76
2021/04/12 04:55:23;;;;;;;6.90;2.33;;;;;;;;;;4995447;28;37479;-77
2021/04/12 04:58:01;;;;;;;9.20;1.93;;;;;;;;;;5002573;28;37520;-76
2021/04/12 05:00:30;;;;;;;7.87;1.83;;;;;;;;;;4976289;28;47766;-77
2021/04/12 05:03:00;;;;;;;10.73;2.00;;;;;;;;;;4981790;28;36278;-77
2021/04/12 05:05:26;;;;;;;6.17;1.40;;;;;;;;;;4980342;28;39220;-77
2021/04/12 05:08:11;;;;;;;4.80;1.37;;;;;;;;;;4995918;28;36402;-76
2021/04/12 05:10:41;;;;;;;3.63;1.07;;;;;;;;;;4984619;28;46874;-77
2021/04/12 05:13:10;;;;;;;3.07;1.30;;;;;;;;;;5003164;28;36152;-77
2021/04/12 05:15:46;;;;;;;4.47;1.07;;;;;;;;;;4980756;28;38764;-76
2021/04/12 05:18:23;;;;;;;5.90;1.27;;;;;;;;;;4978354;28;39162;-76
2021/04/12 05:21:04;;;;;;;4.50;1.30;;;;;;;;;;4981798;28;38137;-76
2021/04/12 05:24:06;;;;;;;5.93;2.17;;;;;;;;;;4982527;28;47197;-76
2021/04/12 05:26:42;;;;;;;3.13;1.60;;;;;;;;;;4967013;28;49091;-76
2021/04/12 05:29:17;;;;;;;3.40;1.00;;;;;;;;;;4995026;28;38832;-77
2021/04/12 05:31:59;;;;;;;4.70;1.07;;;;;;;;;;4983460;28;38718;-77
2021/04/12 05:34:44;;;;;;;4.70;0.83;;;;;;;;;;4980143;28;36941;-77
2021/04/12 05:37:13;;;;;;;6.97;0.90;;;;;;;;;;4981141;28;37852;-77
2021/04/12 05:39:49;;;;;;;5.33;1.20;;;;;;;;;;4977183;28;37987;-78
2021/04/12 05:42:22;;;;;;;5.03;1.70;;;;;;;;;;4996162;28;36449;-77
2021/04/12 05:44:48;;;;;;;9.73;1.67;;;;;;;;;;4998292;28;36644;-78
2021/04/12 05:47:41;;;;;;;7.30;1.63;;;;;;;;;;4978019;28;38789;-77
2021/04/12 05:50:25;;;;;;;3.80;0.93;;;;;;;;;;4981373;28;38093;-79
2021/04/12 05:53:11;;;;;;;4.40;1.60;;;;;;;;;;4998546;28;48277;-78
2021/04/12 05:55:49;;;;;;;7.20;1.50;;;;;;;;;;4989685;28;48822;-78
2021/04/12 05:58:18;;;;;;;7.80;1.63;;;;;;;;;;4994123;28;38128;-78
2021/04/12 06:00:47;;;;;;;2.70;1.40;;;;;;;;;;4989937;28;38404;-78
2021/04/12 06:03:32;;;;;;;8.67;1.80;;;;;;;;;;4996997;28;38280;-79
2021/04/12 06:06:02;;;;;;;4.10;1.80;;;;;;;;;;4992004;28;35953;-78
2021/04/12 06:08:34;;;;;;;7.53;1.90;;;;;;;;;;4995413;28;47430;-78
2021/04/12 06:11:19;;;;;;;3.20;1.77;;;;;;;;;;4989446;28;38609;-79
2021/04/12 06:14:18;;;;;;;6.93;1.80;;;;;;;;;;4988042;28;48789;-79
2021/04/12 06:16:59;;;;;;;8.27;2.20;;;;;;;;;;4966360;28;48786;-79
2021/04/12 06:19:29;;;;;;;6.63;2.90;;;;;;;;;;4977728;28;37854;-78
2021/04/12 06:22:04;;;;;;;4.83;2.70;;;;;;;;;;4974609;28;36993;-78
2021/04/12 06:24:49;;;;;;;7.37;2.00;;;;;;;;;;4983127;28;48849;-78
2021/04/12 06:27:17;;;;;;;8.97;3.70;;;;;;;;;;4983941;28;35702;-78
2021/04/12 06:29:47;;;;;;;5.27;2.60;;;;;;;;;;5002377;28;37789;-78
2021/04/12 06:32:16;;;;;;;6.53;2.93;;;;;;;;;;4984627;28;38570;-78
2021/04/12 06:35:02;;;;;;;5.30;2.30;;;;;;;;;;4978762;28;38469;-78
2021/04/12 06:37:31;;;;;;;8.00;2.93;;;;;;;;;;4967147;28;36150;-79
2021/04/12 06:40:16;;;;;;;6.80;3.30;;;;;;;;;;4963236;28;39956;-78
2021/04/12 06:42:51;;;;;;;3.60;2.50;;;;;;;;;;4963433;28;48639;-80
2021/04/12 06:45:30;;;;;;;5.47;2.80;;;;;;;;;;4963648;28;39016;-79
2021/04/12 06:48:08;;;;;;;5.97;2.47;;;;;;;;;;4976340;28;35939;-78
2021/04/12 06:50:38;;;;;;;4.83;2.50;;;;;;;;;;4977641;28;49053;-78
2021/04/12 06:53:23;;;;;;;6.50;2.87;;;;;;;;;;4985327;28;37434;-78
2021/04/12 06:55:55;;;;;;;8.00;3.40;;;;;;;;;;4973645;28;37808;-78
2021/04/12 06:58:33;;;;;;;6.70;3.38;;;;;;;;;;4997349;28;36119;-79
2021/04/12 07:01:03;;;;;;;6.73;3.57;;;;;;;;;;4987022;28;38690;-78
2021/04/12 07:03:48;;;;;;;7.40;3.77;;;;;;;;;;4986732;28;48457;-78
2021/04/12 07:06:33;;;;;;;9.00;3.70;;;;;;;;;;4984788;28;37924;-78
2021/04/12 07:09:08;;;;;;;6.07;3.97;;;;;;;;;;4981645;28;37008;-78
2021/04/12 07:11:44;;;;;;;5.93;3.80;;;;;;;;;;5001498;28;47098;-78
2021/04/12 07:14:29;;;;;;;4.47;1.80;;;;;;;;;;4985136;28;38871;-77
2021/04/12 07:17:11;;;;;;;4.23;1.80;;;;;;;;;;4994398;28;37636;-77
2021/04/12 07:19:56;;;;;;;4.73;1.70;;;;;;;;;;4964790;28;48927;-77
2021/04/12 07:22:49;;;;;;;3.93;1.93;;;;;;;;;;4985720;28;40058;-77
2021/04/12 07:25:15;;;;;;;5.22;1.60;;;;;;;;;;4975817;28;37462;-78
2021/04/12 07:28:20;;;;;;;9.00;1.80;;;;;;;;;;4974753;28;37329;-78
2021/04/12 07:30:52;;;;;;;2.67;1.57;;;;;;;;;;4979121;28;48009;-78
2021/04/12 07:33:31;;;;;;;2.10;1.52;;;;;;;;;;4988522;28;39249;-78
2021/04/12 07:36:00;;;;;;;6.07;1.73;;;;;;;;;;4984905;28;38694;-78
2021/04/12 07:38:49;;;;;;;4.60;2.07;;;;;;;;;;5000038;28;39513;-77
2021/04/12 07:41:16;;;;;;;2.57;1.80;;;;;;;;;;4986578;28;35726;-77
2021/04/12 07:43:51;;;;;;;2.83;1.63;;;;;;;;;;4985551;28;38746;-78
2021/04/12 07:46:36;;;;;;;5.23;2.10;;;;;;;;;;4993827;28;38722;-78
2021/04/12 07:49:21;;;;;;;4.40;2.10;;;;;;;;;;4984592;28;40002;-77
2021/04/12 07:51:56;;;;;;;4.87;2.23;;;;;;;;;;4981862;28;35739;-78
2021/04/12 07:54:41;;;;;;;4.73;2.63;;;;;;;;;;4987074;28;38706;-77
2021/04/12 07:57:26;;;;;;;4.50;2.40;;;;;;;;;;5003994;28;40718;-78
2021/04/12 08:00:12;;;;;;;3.83;2.30;;;;;;;;;;5005621;28;38646;-77
2021/04/12 08:02:58;;;;;;;2.63;2.40;;;;;;;;;;4981437;28;47458;-78
2021/04/12 08:05:43;;;;;;;3.47;2.43;;;;;;;;;;4986149;28;39212;-78
2021/04/12 08:08:27;;;;;;;3.07;1.90;;;;;;;;;;5000699;28;40285;-78
2021/04/12 08:11:12;;;;;;;3.97;1.93;;;;;;;;;;4986781;28;38870;-77
2021/04/12 08:13:58;;;;;;;2.20;1.97;;;;;;;;;;4986507;28;48634;-78
2021/04/12 08:16:44;;;;;;;4.03;2.00;;;;;;;;;;4983291;28;38637;-78
2021/04/12 08:19:16;;;;;;;6.90;2.30;;;;;;;;;;4982251;28;38415;-78
2021/04/12 08:22:01;;;;;;;4.35;2.33;;;;;;;;;;4997475;28;38565;-78
2021/04/12 08:24:46;;;;;;;5.50;3.17;;;;;;;;;;4979888;28;49040;-78
2021/04/12 08:27:21;;;;;;;7.40;3.00;;;;;;;;;;4998953;28;39993;-78
2021/04/12 08:30:07;;;;;;;4.80;2.83;;;;;;;;;;4978535;28;38531;-78
2021/04/12 08:32:46;;;;;;;3.23;2.13;;;;;;;;;;4979961;28;38185;-78
2021/04/12 08:35:12;;;;;;;3.17;2.70;;;;;;;;;;5002863;28;38560;-79
2021/04/12 08:37:38;;;;;;;4.10;2.70;;;;;;;;;;4998378;28;39962;-78
2021/04/12 08:40:20;;;;;;;2.40;1.77;;;;;;;;;;4984644;28;38463;-79
2021/04/12 08:42:53;;;;;;;3.80;2.47;;;;;;;;;;4984315;28;47006;-79
2021/04/12 08:45:19;;;;;;;2.67;1.65;;;;;;;;;;4982666;28;36494;-81
2021/04/12 08:48:04;;;;;;;2.90;2.57;;;;;;;;;;5008897;28;37728;-80
2021/04/12 08:50:49;;;;;;;4.63;2.80;;;;;;;;;;4985223;28;47071;-79
2021/04/12 08:53:34;;;;;;;5.53;3.23;;;;;;;;;;4999110;28;37203;-79
2021/04/12 08:56:07;;;;;;;3.30;3.00;;;;;;;;;;4998671;28;37848;-79
2021/04/12 08:58:42;;;;;;;5.63;3.10;;;;;;;;;;4979727;28;48943;-79
2021/04/12 09:01:29;;;;;;;4.63;3.13;;;;;;;;;;4997607;28;37909;-78
2021/04/12 09:04:06;;;;;;;5.07;3.20;;;;;;;;;;4983840;28;39900;-79
2021/04/12 09:06:54;;;;;;;4.17;3.30;;;;;;;;;;4964797;28;47248;-79
2021/04/12 09:09:47;;;;;;;5.40;3.93;;;;;;;;;;4997174;28;37810;-79
2021/04/12 09:12:13;;;;;;;4.93;3.55;;;;;;;;;;4983208;28;38879;-79
2021/04/12 09:14:45;;;;;;;4.40;2.90;;;;;;;;;;4991576;28;37643;-79
2021/04/12 09:17:19;;;;;;;7.78;3.40;;;;;;;;;;4987085;28;36737;-79
2021/04/12 09:20:03;;;;;;;2.90;2.23;;;;;;;;;;4985698;28;40288;-79
2021/04/12 09:22:38;;;;;;;2.70;1.87;;;;;;;;;;4988080;28;48642;-78
2021/04/12 09:25:23;;;;;;;3.23;2.17;;;;;;;;;;4981286;28;38755;-78
2021/04/12 09:27:53;;;;;;;3.50;2.40;;;;;;;;;;4999482;28;38240;-79
2021/04/12 09:30:29;;;;;;;4.37;2.13;;;;;;;;;;5004590;28;42948;-78
2021/04/12 09:32:56;;;;;;;2.47;2.27;;;;;;;;;;4978933;28;38742;-78
2021/04/12 09:35:28;;;;;;;2.20;2.00;;;;;;;;;;5003410;28;36825;-79
2021/04/12 09:37:58;;;;;;;4.82;2.53;;;;;;;;;;5004212;28;37661;-77
2021/04/12 09:40:44;;;;;;;3.80;1.97;;;;;;;;;;4997624;28;40793;-78
2021/04/12 09:43:13;;;;;;;2.60;2.03;;;;;;;;;;4978073;28;38466;-77
2021/04/12 09:45:58;;;;;;;3.27;2.10;;;;;;;;;;4998841;28;37323;-77
2021/04/12 09:48:34;;;;;;;2.90;1.73;;;;;;;;;;4985418;28;36499;-80
2021/04/12 09:51:03;;;;;;;5.10;2.50;;;;;;;;;;4987122;28;39906;-79
2021/04/12 09:53:38;;;;;;;5.10;3.50;;;;;;;;;;4979765;28;49727;-79
2021/04/12 09:56:23;;;;;;;3.53;3.07;;;;;;;;;;4996791;28;37883;-80
2021/04/12 09:59:06;;;;;;;4.83;3.57;;;;;;;;;;5013195;22;37029;-76
2021/04/12 10:01:35;;;;;;;4.72;3.42;;;;;;;;;;4980213;28;48741;-76
2021/04/12 10:04:11;;;;;;;4.50;2.70;;;;;;;;;;4992876;28;38360;-77
2021/04/12 10:06:56;;;;;;;6.43;3.50;;;;;;;;;;4986690;28;47363;-76
2021/04/12 10:09:41;;;;;;;4.87;2.60;;;;;;;;;;5000305;28;36109;-76
2021/04/12 10:12:19;;;;;;;6.10;3.43;;;;;;;;;;4994457;28;39687;-76
2021/04/12 10:15:18;;;;;;;3.87;3.07;;;;;;;;;;4995332;28;37538;-77
2021/04/12 10:17:59;;;;;;;7.37;3.10;;;;;;;;;;4981855;28;47951;-76
2021/04/12 10:20:30;;;;;;;7.33;3.53;;;;;;;;;;4975605;28;36694;-78
2021/04/12 10:23:01;;;;;;;5.97;3.43;;;;;;;;;;4982145;28;39902;-76
2021/04/12 10:25:39;;;;;;;7.40;3.93;;;;;;;;;;4980422;28;47160;-77
2021/04/12 10:28:19;;;;;;;6.10;4.07;;;;;;;;;;4997009;28;38300;-77
2021/04/12 10:31:03;;;;;;;7.10;4.30;;;;;;;;;;4982455;28;37221;-77
2021/04/12 10:33:43;;;;;;;5.93;3.63;;;;;;;;;;4982713;28;48232;-77
2021/04/12 10:36:29;;;;;;;3.93;3.53;;;;;;;;;;4999081;28;39000;-75
2021/04/12 10:38:58;;;;;;;5.27;2.90;;;;;;;;;;4982218;28;38228;-76
2021/04/12 10:41:33;;;;;;;4.43;2.60;;;;;;;;;;4993661;28;35533;-75
2021/04/12 10:43:59;;;;;;;3.63;3.03;;;;;;;;;;4998178;28;37520;-76
2021/04/12 10:46:32;;;;;;;4.67;2.90;;;;;;;;;;4994526;28;38056;-76
2021/04/12 10:49:04;;;;;;;3.65;2.47;;;;;;;;;;4997786;28;37187;-76
2021/04/12 10:51:31;;;;;;;3.33;2.03;;;;;;;;;;4981232;28;48827;-76
2021/04/12 10:54:18;;;;;;;7.45;2.42;;;;;;;;;;4977493;28;39352;-76
2021/04/12 10:57:00;;;;;;;5.07;2.20;;;;;;;;;;4987328;28;46181;-76
2021/04/12 10:59:50;;;;;;;4.00;2.70;;;;;;;;;;4986895;28;37877;-76
2021/04/12 11:02:24;;;;;;;4.75;2.30;;;;;;;;;;4988824;28;36738;-76
2021/04/12 11:04:57;;;;;;;5.80;2.38;;;;;;;;;;4979377;28;40043;-77
2021/04/12 11:07:38;;;;;;;6.53;2.60;;;;;;;;;;4978330;28;38575;-78
2021/04/12 11:10:25;;;;;;;2.83;2.30;;;;;;;;;;4983088;28;39059;-78
2021/04/12 11:12:58;;;;;;;4.07;2.77;;;;;;;;;;4963816;28;46733;-78
2021/04/12 11:15:24;;;;;;;6.18;2.88;;;;;;;;;;4989226;28;38245;-79
2021/04/12 11:17:56;;;;;;;7.07;2.80;;;;;;;;;;5002876;28;37442;-77
2021/04/12 11:20:25;;;;;;;6.37;2.90;;;;;;;;;;4984872;28;37876;-79
2021/04/12 11:22:58;;;;;;;3.27;1.97;;;;;;;;;;4982435;28;39097;-76
2021/04/12 11:25:30;;;;;;;7.03;2.43;;;;;;;;;;5001062;28;37801;-77
2021/04/12 11:28:09;;;;;;;5.32;2.72;;;;;;;;;;5000336;28;37553;-77
2021/04/12 11:30:54;;;;;;;8.47;3.77;;;;;;;;;;4983454;28;48756;-77
2021/04/12 11:33:23;;;;;;;6.60;3.93;;;;;;;;;;4987848;28;37765;-79
2021/04/12 11:35:54;;;;;;;6.73;3.50;;;;;;;;;;4990748;28;39420;-78
2021/04/12 11:38:42;;;;;;;4.33;2.87;;;;;;;;;;4993316;28;38386;-77
2021/04/12 11:41:18;;;;;;;4.70;2.40;;;;;;;;;;4980168;28;37829;-77
2021/04/12 11:43:50;;;;;;;6.03;2.63;;;;;;;;;;4991882;28;37091;-76
2021/04/12 11:46:17;;;;;;;6.03;1.85;;;;;;;;;;4983251;28;37877;-77
2021/04/12 11:48:55;;;;;;;3.22;1.52;;;;;;;;;;4999312;28;38820;-77
2021/04/12 11:51:25;;;;;;;2.28;1.48;;;;;;;;;;4999381;28;38073;-76
2021/04/12 11:54:02;;;;;;;3.53;1.55;;;;;;;;;;4981530;28;37593;-77
2021/04/12 11:56:28;;;;;;;3.72;1.67;;;;;;;;;;4984271;28;47183;-77
2021/04/12 11:59:08;;;;;;;4.87;1.67;;;;;;;;;;4986110;28;39457;-76
2021/04/12 12:01:48;;;;;;;6.72;2.20;;;;;;;;;;5001186;28;47678;-77
2021/04/12 12:04:33;;;;;;;7.28;1.77;;;;;;;;;;4994926;28;36670;-77
2021/04/12 12:07:05;;;;;;;4.25;1.85;;;;;;;;;;4976195;28;39137;-76
2021/04/12 12:09:40;;;;;;;3.67;2.42;;;;;;;;;;4980815;28;47377;-76
2021/04/12 12:12:12;;;;;;;5.97;2.47;;;;;;;;;;4997052;28;38968;-77
2021/04/12 12:14:39;;;;;;;2.85;1.65;;;;;;;;;;4993830;28;35370;-78
2021/04/12 12:17:11;;;;;;;2.92;1.77;;;;;;;;;;4970871;28;39043;-77
2021/04/12 12:19:43;;;;;;;3.17;2.05;;;;;;;;;;4979898;28;38421;-78
2021/04/12 12:22:28;;;;;;;3.72;1.52;;;;;;;;;;4990464;28;37518;-79
2021/04/12 12:25:07;;;;;;;3.33;2.10;;;;;;;;;;5005529;28;36967;-79
2021/04/12 12:27:41;;;;;;;3.93;2.07;;;;;;;;;;4973729;28;39137;-77
2021/04/12 12:30:15;;;;;;;4.10;2.07;;;;;;;;;;4986787;28;20074;-77
2021/04/12 12:32:51;;;;;;;4.70;2.05;;;;;;;;;;4979571;28;38332;-77
2021/04/12 12:35:38;;;;;;;5.50;2.13;;;;;;;;;;5003176;28;37174;-77
2021/04/12 12:38:27;;;;;;;3.40;2.00;;;;;;;;;;4979582;28;38077;-76
2021/04/12 12:40:55;;;;;;;4.70;2.57;;;;;;;;;;4977741;28;37477;-77
2021/04/12 12:43:28;;;;;;;5.27;2.60;;;;;;;;;;4982510;28;38724;-77
2021/04/12 12:45:55;;;;;;;3.72;1.85;;;;;;;;;;4980358;28;38543;-78
2021/04/12 12:48:23;;;;;;;4.87;2.10;;;;;;;;;;4992504;28;39620;-78
2021/04/12 12:50:52;;;;;;;7.30;2.10;;;;;;;;;;5001830;28;37251;-77
2021/04/12 12:53:30;;;;;;;5.07;2.30;;;;;;;;;;4997219;28;36943;-77
2021/04/12 12:55:59;;;;;;;4.30;2.60;;;;;;;;;;4985757;28;37734;-77
2021/04/12 12:58:28;;;;;;;5.05;2.47;;;;;;;;;;4987164;28;37700;-77
2021/04/12 13:00:55;;;;;;;5.10;2.83;;;;;;;;;;4986310;28;39278;-76
2021/04/12 13:03:30;;;;;;;4.22;2.45;;;;;;;;;;4981612;28;38395;-77
2021/04/12 13:05:58;;;;;;;5.03;2.80;;;;;;;;;;4984757;28;38071;-77
2021/04/12 13:08:29;;;;;;;5.38;2.65;;;;;;;;;;4996785;28;40505;-76
2021/04/12 13:10:56;;;;;;;3.80;2.50;;;;;;;;;;4990843;28;38516;-76
2021/04/12 13:13:22;;;;;;;6.40;2.90;;;;;;;;;;4998369;28;37131;-76
2021/04/12 13:15:49;;;;;;;7.37;2.67;;;;;;;;;;4979845;28;37122;-76
2021/04/12 13:18:21;;;;;;;7.47;3.13;;;;;;;;;;4990234;28;39631;-75
2021/04/12 13:20:50;;;;;;;7.03;2.38;;;;;;;;;;4982834;28;38550;-77
2021/04/12 13:23:22;;;;;;;4.50;2.63;;;;;;;;;;4988003;28;37050;-77
2021/04/12 13:25:49;;;;;;;3.25;2.30;;;;;;;;;;4997543;28;36831;-76
2021/04/12 13:28:22;;;;;;;6.20;2.70;;;;;;;;;;4989781;28;39696;-77
2021/04/12 13:31:08;;;;;;;5.93;2.65;;;;;;;;;;4999406;28;37619;-79
2021/04/12 13:33:47;;;;;;;6.00;2.50;;;;;;;;;;4980848;28;48078;-76
2021/04/12 13:36:16;;;;;;;6.37;2.80;;;;;;;;;;5003799;28;36724;-76
2021/04/12 13:38:43;;;;;;;5.57;2.80;;;;;;;;;;5005275;28;39159;-76
2021/04/12 13:41:15;;;;;;;3.30;2.40;;;;;;;;;;4999616;28;38662;-77
2021/04/12 13:43:43;;;;;;;7.37;2.30;;;;;;;;;;4994024;28;37548;-76
2021/04/12 13:46:12;;;;;;;6.28;2.25;;;;;;;;;;4987855;28;35630;-76
2021/04/12 13:48:38;;;;;;;3.67;2.27;;;;;;;;;;4991006;28;39281;-77
2021/04/12 13:51:09;;;;;;;3.70;2.20;;;;;;;;;;4997168;28;37259;-76
2021/04/12 13:53:35;;;;;;;4.50;2.00;;;;;;;;;;4991832;28;36874;-76
2021/04/12 13:56:07;;;;;;;4.63;2.03;;;;;;;;;;4978368;28;36790;-77
2021/04/12 13:58:36;;;;;;;8.07;2.03;;;;;;;;;;4993163;28;47397;-76
2021/04/12 14:01:12;;;;;;;2.90;2.00;;;;;;;;;;4988081;28;38479;-78
2021/04/12 14:03:43;;;;;;;2.83;2.03;;;;;;;;;;4985901;28;49152;-77
2021/04/12 14:06:20;;;;;;;4.27;1.97;;;;;;;;;;4997192;28;36533;-76
2021/04/12 14:08:50;;;;;;;5.17;2.20;;;;;;;;;;4978828;28;40007;-76
2021/04/12 14:11:22;;;;;;;4.43;2.60;;;;;;;;;;4986049;28;37283;-76
2021/04/12 14:13:51;;;;;;;8.10;3.73;;;;;;;;;;4982829;28;38931;-77
2021/04/12 14:16:20;;;;;;;5.67;3.27;;;;;;;;;;4988723;28;39161;-76
2021/04/12 14:18:57;;;;;;;6.83;3.60;;;;;;;;;;4993374;28;37798;-76
2021/04/12 14:21:30;;;;;;;8.97;3.53;;;;;;;;;;4998176;28;37351;-76
2021/04/12 14:23:57;;;;;;;10.13;4.10;;;;;;;;;;4991574;28;37444;-76
2021/04/12 14:26:26;;;;;;;7.40;3.63;;;;;;;;;;4999887;28;35685;-77
2021/04/12 14:28:54;;;;;;;5.73;3.50;;;;;;;;;;4991762;28;38229;-77
2021/04/12 14:31:22;;;;;;;6.00;3.27;;;;;;;;;;4978332;28;39351;-76
2021/04/12 14:33:51;;;;;;;8.67;3.23;;;;;;;;;;4983955;28;38049;-75
2021/04/12 14:36:26;;;;;;;4.80;3.37;;;;;;;;;;4990522;28;36867;-75
2021/04/12 14:38:54;;;;;;;10.70;3.67;;;;;;;;;;4981976;28;38913;-75
2021/04/12 14:41:24;;;;;;;9.13;3.47;;;;;;;;;;4980374;28;40657;-77
2021/04/12 14:44:03;;;;;;;8.73;2.77;;;;;;;;;;4994393;28;38105;-76
2021/04/12 14:46:40;;;;;;;10.00;4.00;;;;;;;;;;4994336;28;48301;-78
2021/04/12 14:49:08;;;;;;;7.67;2.80;;;;;;;;;;4997854;28;38458;-77
2021/04/12 14:51:39;;;;;;;5.60;3.20;;;;;;;;;;4994067;28;37760;-78
2021/04/12 14:54:37;;;;;;;5.33;3.23;;;;;;;;;;4976520;28;38702;-78
2021/04/12 14:57:04;;;;;;;4.13;2.33;;;;;;;;;;4981832;28;36774;-78
2021/04/12 14:59:33;;;;;;;5.83;2.40;;;;;;;;;;4995509;28;39384;-78
2021/04/12 15:02:00;;;;;;;6.27;3.20;;;;;;;;;;4977869;28;39302;-79
2021/04/12 15:04:30;;;;;;;6.67;2.53;;;;;;;;;;4981429;28;40165;-77
2021/04/12 15:07:01;;;;;;;4.93;2.30;;;;;;;;;;4972873;28;37795;-77
2021/04/12 15:09:31;;;;;;;8.23;2.67;;;;;;;;;;4992420;28;46795;-77
2021/04/12 15:12:04;;;;;;;6.47;2.53;;;;;;;;;;4986638;28;38879;-77
2021/04/12 15:14:42;;;;;;;5.37;2.73;;;;;;;;;;4976148;28;47163;-77
2021/04/12 15:17:31;;;;;;;6.33;2.70;;;;;;;;;;4978410;28;35577;-77
2021/04/12 15:20:04;;;;;;;5.53;2.17;;;;;;;;;;4976722;28;39061;-77
2021/04/12 15:22:33;;;;;;;4.30;2.03;;;;;;;;;;4987895;28;48086;-78
2021/04/12 15:25:06;;;;;;;6.83;2.67;;;;;;;;;;4992761;28;37020;-78
2021/04/12 15:27:32;;;;;;;4.25;2.38;;;;;;;;;;4981035;28;38123;-77
2021/04/12 15:30:02;;;;;;;3.77;2.43;;;;;;;;;;5000450;28;37823;-78
2021/04/12 15:32:39;;;;;;;8.30;3.07;;;;;;;;;;4991647;28;48483;-77
2021/04/12 15:35:21;;;;;;;5.77;2.47;;;;;;;;;;4994748;28;37404;-78
2021/04/12 15:38:06;;;;;;;7.13;2.43;;;;;;;;;;4988261;28;37325;-78